sensor_id;sensor_type;location;lat;lon;timestamp;P1;durP1;ratioP1;P2;durP2;ratioP2
69417;SDS011;56610;48.872;2.400;2023-08-30T00:01:06;3.40;;;2.53;;
69417;SDS011;56610;48.872;2.400;2023-08-30T00:03:33;3.03;;;2.45;;
69417;SDS011;56610;48.872;2.400;2023-08-30T00:06:02;3.78;;;2.80;;
69417;SDS011;56610;48.872;2.400;2023-08-30T00:08:29;3.72;;;2.67;;
69417;SDS011;56610;48.872;2.400;2023-08-30T00:10:55;4.53;;;3.05;;
69417;SDS011;56610;48.872;2.400;2023-08-30T00:13:23;3.13;;;2.58;;
69417;SDS011;56610;48.872;2.400;2023-08-30T00:15:52;3.67;;;2.63;;
69417;SDS011;56610;48.872;2.400;2023-08-30T00:18:17;4.07;;;3.20;;
69417;SDS011;56610;48.872;2.400;2023-08-30T00:20:44;3.50;;;2.85;;
69417;SDS011;56610;48.872;2.400;2023-08-30T00:23:09;3.78;;;3.05;;
69417;SDS011;56610;48.872;2.400;2023-08-30T00:25:35;4.28;;;2.90;;
69417;SDS011;56610;48.872;2.400;2023-08-30T00:28:01;4.13;;;2.95;;
69417;SDS011;56610;48.872;2.400;2023-08-30T00:30:26;3.10;;;2.80;;
69417;SDS011;56610;48.872;2.400;2023-08-30T00:32:52;3.08;;;2.67;;
69417;SDS011;56610;48.872;2.400;2023-08-30T00:35:17;3.65;;;2.72;;
69417;SDS011;56610;48.872;2.400;2023-08-30T00:37:43;2.65;;;2.45;;
69417;SDS011;56610;48.872;2.400;2023-08-30T00:40:08;2.85;;;2.50;;
69417;SDS011;56610;48.872;2.400;2023-08-30T00:42:34;3.40;;;2.60;;
69417;SDS011;56610;48.872;2.400;2023-08-30T00:45:00;2.72;;;2.45;;
69417;SDS011;56610;48.872;2.400;2023-08-30T00:47:26;2.92;;;2.50;;
69417;SDS011;56610;48.872;2.400;2023-08-30T00:49:52;3.30;;;2.40;;
69417;SDS011;56610;48.872;2.400;2023-08-30T00:52:17;4.05;;;2.72;;
69417;SDS011;56610;48.872;2.400;2023-08-30T00:54:43;2.65;;;2.45;;
69417;SDS011;56610;48.872;2.400;2023-08-30T00:57:09;3.60;;;2.53;;
69417;SDS011;56610;48.872;2.400;2023-08-30T00:59:35;3.53;;;2.60;;
69417;SDS011;56610;48.872;2.400;2023-08-30T01:02:01;3.85;;;2.70;;
69417;SDS011;56610;48.872;2.400;2023-08-30T01:04:27;4.07;;;2.78;;
69417;SDS011;56610;48.872;2.400;2023-08-30T01:06:55;3.90;;;2.63;;
69417;SDS011;56610;48.872;2.400;2023-08-30T01:09:21;3.08;;;2.53;;
69417;SDS011;56610;48.872;2.400;2023-08-30T01:15:06;5.32;;;2.63;;
69417;SDS011;56610;48.872;2.400;2023-08-30T01:17:36;3.28;;;2.83;;
69417;SDS011;56610;48.872;2.400;2023-08-30T01:20:10;3.50;;;2.70;;
69417;SDS011;56610;48.872;2.400;2023-08-30T01:25:27;3.75;;;2.38;;
69417;SDS011;56610;48.872;2.400;2023-08-30T01:28:13;3.30;;;2.38;;
69417;SDS011;56610;48.872;2.400;2023-08-30T01:30:41;2.47;;;2.08;;
69417;SDS011;56610;48.872;2.400;2023-08-30T01:33:08;2.55;;;2.35;;
69417;SDS011;56610;48.872;2.400;2023-08-30T01:35:35;3.08;;;2.22;;
69417;SDS011;56610;48.872;2.400;2023-08-30T01:38:05;2.60;;;2.05;;
69417;SDS011;56610;48.872;2.400;2023-08-30T01:40:33;1.95;;;1.75;;
69417;SDS011;56610;48.872;2.400;2023-08-30T01:43:01;2.40;;;1.85;;
69417;SDS011;56610;48.872;2.400;2023-08-30T01:45:33;2.90;;;2.22;;
69417;SDS011;56610;48.872;2.400;2023-08-30T01:48:01;2.58;;;1.90;;
69417;SDS011;56610;48.872;2.400;2023-08-30T01:50:32;2.20;;;1.67;;
69417;SDS011;56610;48.872;2.400;2023-08-30T01:52:58;2.33;;;1.90;;
69417;SDS011;56610;48.872;2.400;2023-08-30T01:55:24;3.70;;;1.73;;
69417;SDS011;56610;48.872;2.400;2023-08-30T01:57:51;3.15;;;2.00;;
69417;SDS011;56610;48.872;2.400;2023-08-30T02:00:17;2.08;;;1.90;;
69417;SDS011;56610;48.872;2.400;2023-08-30T02:02:42;1.90;;;1.55;;
69417;SDS011;56610;48.872;2.400;2023-08-30T02:05:08;2.97;;;1.60;;
69417;SDS011;56610;48.872;2.400;2023-08-30T02:10:34;2.33;;;1.90;;
69417;SDS011;56610;48.872;2.400;2023-08-30T02:13:03;2.28;;;1.83;;
69417;SDS011;56610;48.872;2.400;2023-08-30T02:17:58;2.28;;;1.60;;
69417;SDS011;56610;48.872;2.400;2023-08-30T02:20:25;2.50;;;1.70;;
69417;SDS011;56610;48.872;2.400;2023-08-30T02:22:50;3.25;;;1.75;;
69417;SDS011;56610;48.872;2.400;2023-08-30T02:25:16;2.03;;;1.70;;
69417;SDS011;56610;48.872;2.400;2023-08-30T02:27:42;3.30;;;2.00;;
69417;SDS011;56610;48.872;2.400;2023-08-30T02:30:07;2.88;;;2.00;;
69417;SDS011;56610;48.872;2.400;2023-08-30T02:32:33;3.08;;;1.92;;
69417;SDS011;56610;48.872;2.400;2023-08-30T02:34:59;5.70;;;2.00;;
69417;SDS011;56610;48.872;2.400;2023-08-30T02:37:25;1.90;;;1.65;;
69417;SDS011;56610;48.872;2.400;2023-08-30T02:39:51;2.95;;;1.75;;
69417;SDS011;56610;48.872;2.400;2023-08-30T02:42:16;2.78;;;1.83;;
69417;SDS011;56610;48.872;2.400;2023-08-30T02:44:42;2.28;;;1.73;;
69417;SDS011;56610;48.872;2.400;2023-08-30T02:47:08;2.25;;;1.80;;
69417;SDS011;56610;48.872;2.400;2023-08-30T02:49:33;2.25;;;1.75;;
69417;SDS011;56610;48.872;2.400;2023-08-30T02:51:59;3.35;;;1.85;;
69417;SDS011;56610;48.872;2.400;2023-08-30T02:54:24;2.10;;;1.77;;
69417;SDS011;56610;48.872;2.400;2023-08-30T02:56:50;3.40;;;1.90;;
69417;SDS011;56610;48.872;2.400;2023-08-30T02:59:15;2.10;;;1.90;;
69417;SDS011;56610;48.872;2.400;2023-08-30T03:01:41;2.47;;;1.88;;
69417;SDS011;56610;48.872;2.400;2023-08-30T03:04:07;2.22;;;1.60;;
69417;SDS011;56610;48.872;2.400;2023-08-30T03:06:33;2.85;;;1.92;;
69417;SDS011;56610;48.872;2.400;2023-08-30T03:08:59;2.03;;;1.67;;
69417;SDS011;56610;48.872;2.400;2023-08-30T03:11:25;1.63;;;1.25;;
69417;SDS011;56610;48.872;2.400;2023-08-30T03:13:50;3.70;;;1.80;;
69417;SDS011;56610;48.872;2.400;2023-08-30T03:16:18;3.42;;;1.77;;
69417;SDS011;56610;48.872;2.400;2023-08-30T03:18:44;3.13;;;2.17;;
69417;SDS011;56610;48.872;2.400;2023-08-30T03:21:10;2.97;;;1.83;;
69417;SDS011;56610;48.872;2.400;2023-08-30T03:23:36;4.85;;;1.88;;
69417;SDS011;56610;48.872;2.400;2023-08-30T03:26:13;2.88;;;1.88;;
69417;SDS011;56610;48.872;2.400;2023-08-30T03:28:40;2.00;;;1.80;;
69417;SDS011;56610;48.872;2.400;2023-08-30T03:31:16;2.72;;;2.10;;
69417;SDS011;56610;48.872;2.400;2023-08-30T03:33:43;3.70;;;1.95;;
69417;SDS011;56610;48.872;2.400;2023-08-30T03:36:12;2.60;;;1.70;;
69417;SDS011;56610;48.872;2.400;2023-08-30T03:38:42;2.30;;;1.95;;
69417;SDS011;56610;48.872;2.400;2023-08-30T03:41:08;2.42;;;1.75;;
69417;SDS011;56610;48.872;2.400;2023-08-30T03:43:35;3.10;;;1.80;;
69417;SDS011;56610;48.872;2.400;2023-08-30T03:46:01;3.63;;;2.20;;
69417;SDS011;56610;48.872;2.400;2023-08-30T03:48:28;2.03;;;1.65;;
69417;SDS011;56610;48.872;2.400;2023-08-30T03:50:54;3.75;;;1.95;;
69417;SDS011;56610;48.872;2.400;2023-08-30T03:53:20;1.83;;;1.65;;
69417;SDS011;56610;48.872;2.400;2023-08-30T03:55:46;2.58;;;2.00;;
69417;SDS011;56610;48.872;2.400;2023-08-30T03:58:11;3.42;;;1.98;;
69417;SDS011;56610;48.872;2.400;2023-08-30T04:00:37;2.47;;;1.90;;
69417;SDS011;56610;48.872;2.400;2023-08-30T04:03:07;3.40;;;2.00;;
69417;SDS011;56610;48.872;2.400;2023-08-30T04:05:36;2.88;;;1.95;;
69417;SDS011;56610;48.872;2.400;2023-08-30T04:08:02;2.70;;;1.90;;
69417;SDS011;56610;48.872;2.400;2023-08-30T04:10:37;2.65;;;2.15;;
69417;SDS011;56610;48.872;2.400;2023-08-30T04:13:04;2.95;;;2.08;;
69417;SDS011;56610;48.872;2.400;2023-08-30T04:15:37;2.20;;;1.77;;
69417;SDS011;56610;48.872;2.400;2023-08-30T04:18:04;3.28;;;2.40;;
69417;SDS011;56610;48.872;2.400;2023-08-30T04:20:31;2.38;;;2.13;;
69417;SDS011;56610;48.872;2.400;2023-08-30T04:22:57;4.45;;;2.30;;
69417;SDS011;56610;48.872;2.400;2023-08-30T04:25:24;3.70;;;1.95;;
69417;SDS011;56610;48.872;2.400;2023-08-30T04:27:50;2.95;;;2.00;;
69417;SDS011;56610;48.872;2.400;2023-08-30T04:30:16;2.75;;;2.17;;
69417;SDS011;56610;48.872;2.400;2023-08-30T04:32:42;3.15;;;1.98;;
69417;SDS011;56610;48.872;2.400;2023-08-30T04:35:07;3.38;;;1.98;;
69417;SDS011;56610;48.872;2.400;2023-08-30T04:37:33;3.45;;;2.20;;
69417;SDS011;56610;48.872;2.400;2023-08-30T04:39:59;2.28;;;1.92;;
69417;SDS011;56610;48.872;2.400;2023-08-30T04:42:25;2.45;;;2.22;;
69417;SDS011;56610;48.872;2.400;2023-08-30T04:44:51;3.35;;;2.33;;
69417;SDS011;56610;48.872;2.400;2023-08-30T04:47:19;2.05;;;1.80;;
69417;SDS011;56610;48.872;2.400;2023-08-30T04:49:49;2.78;;;2.30;;
69417;SDS011;56610;48.872;2.400;2023-08-30T04:52:16;2.78;;;2.22;;
69417;SDS011;56610;48.872;2.400;2023-08-30T04:54:42;2.70;;;2.28;;
69417;SDS011;56610;48.872;2.400;2023-08-30T04:57:08;3.88;;;2.03;;
69417;SDS011;56610;48.872;2.400;2023-08-30T04:59:33;2.92;;;1.85;;
69417;SDS011;56610;48.872;2.400;2023-08-30T05:01:59;3.17;;;2.15;;
69417;SDS011;56610;48.872;2.400;2023-08-30T05:04:24;4.13;;;2.40;;
69417;SDS011;56610;48.872;2.400;2023-08-30T05:06:50;3.33;;;2.42;;
69417;SDS011;56610;48.872;2.400;2023-08-30T05:09:16;3.83;;;2.72;;
69417;SDS011;56610;48.872;2.400;2023-08-30T05:11:41;3.78;;;2.80;;
69417;SDS011;56610;48.872;2.400;2023-08-30T05:14:07;3.05;;;2.70;;
69417;SDS011;56610;48.872;2.400;2023-08-30T05:16:37;2.50;;;2.30;;
69417;SDS011;56610;48.872;2.400;2023-08-30T05:19:03;3.15;;;2.50;;
69417;SDS011;56610;48.872;2.400;2023-08-30T05:21:28;3.28;;;2.80;;
69417;SDS011;56610;48.872;2.400;2023-08-30T05:23:54;4.47;;;2.40;;
69417;SDS011;56610;48.872;2.400;2023-08-30T05:26:19;3.97;;;2.45;;
69417;SDS011;56610;48.872;2.400;2023-08-30T05:28:45;3.95;;;2.38;;
69417;SDS011;56610;48.872;2.400;2023-08-30T05:31:11;4.63;;;2.33;;
69417;SDS011;56610;48.872;2.400;2023-08-30T05:33:36;4.57;;;2.88;;
69417;SDS011;56610;48.872;2.400;2023-08-30T05:36:02;2.63;;;2.38;;
69417;SDS011;56610;48.872;2.400;2023-08-30T05:38:27;6.10;;;2.13;;
69417;SDS011;56610;48.872;2.400;2023-08-30T05:40:53;2.85;;;2.58;;
69417;SDS011;56610;48.872;2.400;2023-08-30T05:43:19;2.78;;;2.58;;
69417;SDS011;56610;48.872;2.400;2023-08-30T05:45:44;3.75;;;2.50;;
69417;SDS011;56610;48.872;2.400;2023-08-30T05:48:10;4.22;;;2.50;;
69417;SDS011;56610;48.872;2.400;2023-08-30T05:50:35;3.45;;;2.15;;
69417;SDS011;56610;48.872;2.400;2023-08-30T05:53:02;4.15;;;2.50;;
69417;SDS011;56610;48.872;2.400;2023-08-30T05:55:28;3.35;;;2.38;;
69417;SDS011;56610;48.872;2.400;2023-08-30T05:57:54;4.47;;;2.55;;
69417;SDS011;56610;48.872;2.400;2023-08-30T06:00:20;3.70;;;2.55;;
69417;SDS011;56610;48.872;2.400;2023-08-30T06:02:46;3.83;;;2.25;;
69417;SDS011;56610;48.872;2.400;2023-08-30T06:05:12;3.88;;;2.55;;
69417;SDS011;56610;48.872;2.400;2023-08-30T06:07:38;5.18;;;2.50;;
69417;SDS011;56610;48.872;2.400;2023-08-30T06:10:03;7.05;;;2.47;;
69417;SDS011;56610;48.872;2.400;2023-08-30T06:12:29;3.08;;;2.20;;
69417;SDS011;56610;48.872;2.400;2023-08-30T06:14:58;2.60;;;2.40;;
69417;SDS011;56610;48.872;2.400;2023-08-30T06:17:23;3.40;;;2.38;;
69417;SDS011;56610;48.872;2.400;2023-08-30T06:19:49;4.00;;;2.22;;
69417;SDS011;56610;48.872;2.400;2023-08-30T06:22:14;4.75;;;2.60;;
69417;SDS011;56610;48.872;2.400;2023-08-30T06:24:40;3.97;;;2.38;;
69417;SDS011;56610;48.872;2.400;2023-08-30T06:27:06;3.53;;;2.55;;
69417;SDS011;56610;48.872;2.400;2023-08-30T06:29:31;2.63;;;2.20;;
69417;SDS011;56610;48.872;2.400;2023-08-30T06:31:57;4.88;;;2.70;;
69417;SDS011;56610;48.872;2.400;2023-08-30T06:34:23;3.67;;;2.67;;
69417;SDS011;56610;48.872;2.400;2023-08-30T06:36:49;3.72;;;2.47;;
69417;SDS011;56610;48.872;2.400;2023-08-30T06:39:14;4.65;;;2.83;;
69417;SDS011;56610;48.872;2.400;2023-08-30T06:41:40;3.80;;;2.30;;
69417;SDS011;56610;48.872;2.400;2023-08-30T06:44:05;4.20;;;2.60;;
69417;SDS011;56610;48.872;2.400;2023-08-30T06:46:31;2.83;;;1.92;;
69417;SDS011;56610;48.872;2.400;2023-08-30T06:48:57;3.67;;;2.40;;
69417;SDS011;56610;48.872;2.400;2023-08-30T06:51:22;2.95;;;2.20;;
69417;SDS011;56610;48.872;2.400;2023-08-30T06:53:48;4.63;;;2.40;;
69417;SDS011;56610;48.872;2.400;2023-08-30T06:56:14;3.72;;;1.73;;
69417;SDS011;56610;48.872;2.400;2023-08-30T06:58:39;3.70;;;2.13;;
69417;SDS011;56610;48.872;2.400;2023-08-30T07:01:05;3.58;;;2.10;;
69417;SDS011;56610;48.872;2.400;2023-08-30T07:03:30;3.67;;;2.53;;
69417;SDS011;56610;48.872;2.400;2023-08-30T07:05:56;2.08;;;1.88;;
69417;SDS011;56610;48.872;2.400;2023-08-30T07:08:21;3.83;;;1.90;;
69417;SDS011;56610;48.872;2.400;2023-08-30T07:10:47;3.10;;;1.77;;
69417;SDS011;56610;48.872;2.400;2023-08-30T07:13:12;2.10;;;1.90;;
69417;SDS011;56610;48.872;2.400;2023-08-30T07:15:38;2.03;;;1.70;;
69417;SDS011;56610;48.872;2.400;2023-08-30T07:18:05;3.65;;;1.83;;
69417;SDS011;56610;48.872;2.400;2023-08-30T07:20:31;2.05;;;1.50;;
69417;SDS011;56610;48.872;2.400;2023-08-30T07:22:57;3.08;;;2.00;;
69417;SDS011;56610;48.872;2.400;2023-08-30T07:25:22;3.13;;;1.85;;
69417;SDS011;56610;48.872;2.400;2023-08-30T07:27:49;2.30;;;1.50;;
69417;SDS011;56610;48.872;2.400;2023-08-30T07:30:15;2.38;;;1.70;;
69417;SDS011;56610;48.872;2.400;2023-08-30T07:32:40;3.55;;;1.60;;
69417;SDS011;56610;48.872;2.400;2023-08-30T07:35:07;3.53;;;1.60;;
69417;SDS011;56610;48.872;2.400;2023-08-30T07:37:33;2.38;;;1.55;;
69417;SDS011;56610;48.872;2.400;2023-08-30T07:39:59;2.20;;;1.47;;
69417;SDS011;56610;48.872;2.400;2023-08-30T07:42:25;2.67;;;1.40;;
69417;SDS011;56610;48.872;2.400;2023-08-30T07:44:51;2.97;;;1.58;;
69417;SDS011;56610;48.872;2.400;2023-08-30T07:47:16;2.92;;;1.40;;
69417;SDS011;56610;48.872;2.400;2023-08-30T07:49:42;2.30;;;1.17;;
69417;SDS011;56610;48.872;2.400;2023-08-30T07:52:08;3.33;;;1.38;;
69417;SDS011;56610;48.872;2.400;2023-08-30T07:54:36;3.22;;;1.40;;
69417;SDS011;56610;48.872;2.400;2023-08-30T07:57:03;2.60;;;1.42;;
69417;SDS011;56610;48.872;2.400;2023-08-30T07:59:29;2.15;;;1.60;;
69417;SDS011;56610;48.872;2.400;2023-08-30T08:01:57;2.88;;;1.50;;
69417;SDS011;56610;48.872;2.400;2023-08-30T08:04:23;2.78;;;1.40;;
69417;SDS011;56610;48.872;2.400;2023-08-30T08:06:48;2.75;;;1.58;;
69417;SDS011;56610;48.872;2.400;2023-08-30T08:09:14;4.07;;;1.60;;
69417;SDS011;56610;48.872;2.400;2023-08-30T08:11:40;4.20;;;1.50;;
69417;SDS011;56610;48.872;2.400;2023-08-30T08:14:08;3.75;;;2.03;;
69417;SDS011;56610;48.872;2.400;2023-08-30T08:16:36;3.80;;;1.73;;
69417;SDS011;56610;48.872;2.400;2023-08-30T08:19:02;2.85;;;1.60;;
69417;SDS011;56610;48.872;2.400;2023-08-30T08:21:27;3.88;;;1.67;;
69417;SDS011;56610;48.872;2.400;2023-08-30T08:23:53;3.38;;;1.50;;
69417;SDS011;56610;48.872;2.400;2023-08-30T08:26:19;3.78;;;1.50;;
69417;SDS011;56610;48.872;2.400;2023-08-30T08:28:44;3.03;;;1.88;;
69417;SDS011;56610;48.872;2.400;2023-08-30T08:31:10;2.83;;;1.70;;
69417;SDS011;56610;48.872;2.400;2023-08-30T08:33:36;3.25;;;1.70;;
69417;SDS011;56610;48.872;2.400;2023-08-30T08:36:01;3.08;;;1.70;;
69417;SDS011;56610;48.872;2.400;2023-08-30T08:38:27;4.93;;;1.80;;
69417;SDS011;56610;48.872;2.400;2023-08-30T08:41:03;2.45;;;1.63;;
69417;SDS011;56610;48.872;2.400;2023-08-30T08:43:31;2.60;;;1.60;;
69417;SDS011;56610;48.872;2.400;2023-08-30T08:45:59;1.63;;;1.38;;
69417;SDS011;56610;48.872;2.400;2023-08-30T08:48:25;3.25;;;1.63;;
69417;SDS011;56610;48.872;2.400;2023-08-30T08:50:53;3.92;;;1.83;;
69417;SDS011;56610;48.872;2.400;2023-08-30T08:53:19;3.17;;;1.70;;
69417;SDS011;56610;48.872;2.400;2023-08-30T08:55:46;4.03;;;1.70;;
69417;SDS011;56610;48.872;2.400;2023-08-30T08:58:13;3.42;;;1.77;;
69417;SDS011;56610;48.872;2.400;2023-08-30T09:00:39;2.70;;;1.70;;
69417;SDS011;56610;48.872;2.400;2023-08-30T09:03:09;3.63;;;1.75;;
69417;SDS011;56610;48.872;2.400;2023-08-30T09:05:37;3.45;;;2.03;;
69417;SDS011;56610;48.872;2.400;2023-08-30T09:08:04;2.60;;;1.38;;
69417;SDS011;56610;48.872;2.400;2023-08-30T09:10:34;2.80;;;1.63;;
69417;SDS011;56610;48.872;2.400;2023-08-30T09:13:01;3.22;;;1.60;;
69417;SDS011;56610;48.872;2.400;2023-08-30T09:15:33;3.22;;;1.50;;
69417;SDS011;56610;48.872;2.400;2023-08-30T09:18:00;2.95;;;1.77;;
69417;SDS011;56610;48.872;2.400;2023-08-30T09:20:25;5.32;;;1.70;;
69417;SDS011;56610;48.872;2.400;2023-08-30T09:22:51;4.28;;;1.75;;
69417;SDS011;56610;48.872;2.400;2023-08-30T09:25:24;5.72;;;1.73;;
69417;SDS011;56610;48.872;2.400;2023-08-30T09:27:50;4.10;;;1.90;;
69417;SDS011;56610;48.872;2.400;2023-08-30T09:30:22;3.63;;;1.75;;
69417;SDS011;56610;48.872;2.400;2023-08-30T09:32:48;4.03;;;1.40;;
69417;SDS011;56610;48.872;2.400;2023-08-30T09:35:14;3.67;;;1.52;;
69417;SDS011;56610;48.872;2.400;2023-08-30T09:37:39;4.13;;;1.45;;
69417;SDS011;56610;48.872;2.400;2023-08-30T09:40:05;3.70;;;1.67;;
69417;SDS011;56610;48.872;2.400;2023-08-30T09:42:31;3.88;;;1.83;;
69417;SDS011;56610;48.872;2.400;2023-08-30T09:44:57;3.08;;;1.75;;
69417;SDS011;56610;48.872;2.400;2023-08-30T09:47:24;3.53;;;1.40;;
69417;SDS011;56610;48.872;2.400;2023-08-30T09:49:54;3.90;;;1.85;;
69417;SDS011;56610;48.872;2.400;2023-08-30T09:52:20;2.53;;;1.50;;
69417;SDS011;56610;48.872;2.400;2023-08-30T09:54:48;5.18;;;1.48;;
69417;SDS011;56610;48.872;2.400;2023-08-30T09:57:16;2.97;;;1.43;;
69417;SDS011;56610;48.872;2.400;2023-08-30T09:59:42;4.72;;;1.45;;
69417;SDS011;56610;48.872;2.400;2023-08-30T10:02:08;3.47;;;1.48;;
69417;SDS011;56610;48.872;2.400;2023-08-30T10:04:37;2.78;;;1.27;;
69417;SDS011;56610;48.872;2.400;2023-08-30T10:07:06;5.47;;;1.65;;
69417;SDS011;56610;48.872;2.400;2023-08-30T10:09:33;3.67;;;1.52;;
69417;SDS011;56610;48.872;2.400;2023-08-30T10:11:58;3.65;;;1.70;;
69417;SDS011;56610;48.872;2.400;2023-08-30T10:14:26;4.63;;;1.50;;
69417;SDS011;56610;48.872;2.400;2023-08-30T10:16:53;4.40;;;1.73;;
69417;SDS011;56610;48.872;2.400;2023-08-30T10:19:27;5.50;;;1.80;;
69417;SDS011;56610;48.872;2.400;2023-08-30T10:24:29;5.35;;;2.40;;
69417;SDS011;56610;48.872;2.400;2023-08-30T10:27:06;5.18;;;2.20;;
69417;SDS011;56610;48.872;2.400;2023-08-30T10:29:33;5.07;;;2.05;;
69417;SDS011;56610;48.872;2.400;2023-08-30T10:32:03;3.13;;;1.60;;
69417;SDS011;56610;48.872;2.400;2023-08-30T10:34:36;4.00;;;1.80;;
69417;SDS011;56610;48.872;2.400;2023-08-30T10:37:03;4.15;;;1.85;;
69417;SDS011;56610;48.872;2.400;2023-08-30T10:42:12;4.15;;;1.92;;
69417;SDS011;56610;48.872;2.400;2023-08-30T10:49:53;5.55;;;1.98;;
69417;SDS011;56610;48.872;2.400;2023-08-30T10:52:20;4.97;;;2.08;;
69417;SDS011;56610;48.872;2.400;2023-08-30T10:54:45;4.75;;;2.05;;
69417;SDS011;56610;48.872;2.400;2023-08-30T10:57:15;4.25;;;2.03;;
69417;SDS011;56610;48.872;2.400;2023-08-30T11:02:50;4.72;;;1.80;;
69417;SDS011;56610;48.872;2.400;2023-08-30T11:05:17;4.60;;;1.77;;
69417;SDS011;56610;48.872;2.400;2023-08-30T11:07:47;5.00;;;1.90;;
69417;SDS011;56610;48.872;2.400;2023-08-30T11:10:16;4.57;;;1.88;;
69417;SDS011;56610;48.872;2.400;2023-08-30T11:12:43;4.05;;;2.13;;
69417;SDS011;56610;48.872;2.400;2023-08-30T11:15:10;5.87;;;2.10;;
69417;SDS011;56610;48.872;2.400;2023-08-30T11:17:39;6.03;;;2.75;;
69417;SDS011;56610;48.872;2.400;2023-08-30T11:20:05;4.15;;;1.83;;
69417;SDS011;56610;48.872;2.400;2023-08-30T11:22:39;4.30;;;2.03;;
69417;SDS011;56610;48.872;2.400;2023-08-30T11:25:10;3.97;;;1.80;;
69417;SDS011;56610;48.872;2.400;2023-08-30T11:27:37;3.78;;;1.60;;
69417;SDS011;56610;48.872;2.400;2023-08-30T11:30:03;3.83;;;1.90;;
69417;SDS011;56610;48.872;2.400;2023-08-30T11:32:37;4.28;;;1.98;;
69417;SDS011;56610;48.872;2.400;2023-08-30T11:35:05;4.50;;;1.92;;
69417;SDS011;56610;48.872;2.400;2023-08-30T11:37:32;3.78;;;1.95;;
69417;SDS011;56610;48.872;2.400;2023-08-30T11:39:58;2.92;;;1.70;;
69417;SDS011;56610;48.872;2.400;2023-08-30T11:42:25;3.78;;;2.10;;
69417;SDS011;56610;48.872;2.400;2023-08-30T11:44:51;3.78;;;1.73;;
69417;SDS011;56610;48.872;2.400;2023-08-30T11:47:22;5.32;;;1.85;;
69417;SDS011;56610;48.872;2.400;2023-08-30T11:49:48;5.78;;;2.05;;
69417;SDS011;56610;48.872;2.400;2023-08-30T11:52:15;4.78;;;2.33;;
69417;SDS011;56610;48.872;2.400;2023-08-30T11:54:42;4.67;;;1.87;;
69417;SDS011;56610;48.872;2.400;2023-08-30T11:57:08;3.88;;;1.90;;
69417;SDS011;56610;48.872;2.400;2023-08-30T11:59:35;4.90;;;2.40;;
69417;SDS011;56610;48.872;2.400;2023-08-30T12:02:01;3.53;;;2.08;;
69417;SDS011;56610;48.872;2.400;2023-08-30T12:04:30;4.38;;;2.00;;
69417;SDS011;56610;48.872;2.400;2023-08-30T12:06:56;2.47;;;1.60;;
69417;SDS011;56610;48.872;2.400;2023-08-30T12:09:21;2.78;;;1.63;;
69417;SDS011;56610;48.872;2.400;2023-08-30T12:11:48;3.75;;;1.80;;
69417;SDS011;56610;48.872;2.400;2023-08-30T12:14:14;3.13;;;1.60;;
69417;SDS011;56610;48.872;2.400;2023-08-30T12:16:40;3.38;;;1.67;;
69417;SDS011;56610;48.872;2.400;2023-08-30T12:19:09;3.40;;;1.80;;
69417;SDS011;56610;48.872;2.400;2023-08-30T12:21:43;3.50;;;2.00;;
69417;SDS011;56610;48.872;2.400;2023-08-30T12:24:09;2.95;;;1.58;;
69417;SDS011;56610;48.872;2.400;2023-08-30T12:26:35;2.78;;;1.52;;
69417;SDS011;56610;48.872;2.400;2023-08-30T12:29:07;3.80;;;1.63;;
69417;SDS011;56610;48.872;2.400;2023-08-30T12:31:33;4.18;;;2.20;;
69417;SDS011;56610;48.872;2.400;2023-08-30T12:33:58;4.93;;;2.13;;
69417;SDS011;56610;48.872;2.400;2023-08-30T12:36:24;4.82;;;2.15;;
69417;SDS011;56610;48.872;2.400;2023-08-30T12:38:50;3.30;;;1.70;;
69417;SDS011;56610;48.872;2.400;2023-08-30T12:41:15;3.92;;;2.03;;
69417;SDS011;56610;48.872;2.400;2023-08-30T12:43:41;4.00;;;1.92;;
69417;SDS011;56610;48.872;2.400;2023-08-30T12:46:07;4.07;;;2.17;;
69417;SDS011;56610;48.872;2.400;2023-08-30T12:48:32;2.88;;;1.55;;
69417;SDS011;56610;48.872;2.400;2023-08-30T12:50:58;3.47;;;2.22;;
69417;SDS011;56610;48.872;2.400;2023-08-30T12:53:28;4.20;;;2.13;;
69417;SDS011;56610;48.872;2.400;2023-08-30T12:55:54;3.35;;;1.73;;
69417;SDS011;56610;48.872;2.400;2023-08-30T12:58:19;2.47;;;1.75;;
69417;SDS011;56610;48.872;2.400;2023-08-30T13:00:45;3.88;;;1.80;;
69417;SDS011;56610;48.872;2.400;2023-08-30T13:03:11;3.17;;;2.00;;
69417;SDS011;56610;48.872;2.400;2023-08-30T13:05:36;4.15;;;1.90;;
69417;SDS011;56610;48.872;2.400;2023-08-30T13:08:02;4.47;;;2.00;;
69417;SDS011;56610;48.872;2.400;2023-08-30T13:10:28;3.25;;;2.05;;
69417;SDS011;56610;48.872;2.400;2023-08-30T13:12:53;4.22;;;1.95;;
69417;SDS011;56610;48.872;2.400;2023-08-30T13:15:19;5.03;;;2.03;;
69417;SDS011;56610;48.872;2.400;2023-08-30T13:17:44;3.00;;;1.60;;
69417;SDS011;56610;48.872;2.400;2023-08-30T13:20:10;3.42;;;1.90;;
69417;SDS011;56610;48.872;2.400;2023-08-30T13:22:36;4.32;;;2.10;;
69417;SDS011;56610;48.872;2.400;2023-08-30T13:25:02;3.72;;;1.73;;
69417;SDS011;56610;48.872;2.400;2023-08-30T13:27:28;2.95;;;1.63;;
69417;SDS011;56610;48.872;2.400;2023-08-30T13:29:57;3.35;;;1.70;;
69417;SDS011;56610;48.872;2.400;2023-08-30T13:32:22;6.47;;;1.70;;
69417;SDS011;56610;48.872;2.400;2023-08-30T13:34:49;2.97;;;1.50;;
69417;SDS011;56610;48.872;2.400;2023-08-30T13:37:15;2.58;;;1.60;;
69417;SDS011;56610;48.872;2.400;2023-08-30T13:39:40;3.55;;;1.55;;
69417;SDS011;56610;48.872;2.400;2023-08-30T13:42:06;5.65;;;1.65;;
69417;SDS011;56610;48.872;2.400;2023-08-30T13:44:32;4.00;;;1.77;;
69417;SDS011;56610;48.872;2.400;2023-08-30T13:46:59;4.65;;;2.00;;
69417;SDS011;56610;48.872;2.400;2023-08-30T13:49:25;3.50;;;1.90;;
69417;SDS011;56610;48.872;2.400;2023-08-30T13:51:52;4.50;;;1.85;;
69417;SDS011;56610;48.872;2.400;2023-08-30T13:54:18;2.73;;;1.77;;
69417;SDS011;56610;48.872;2.400;2023-08-30T13:56:44;4.85;;;1.95;;
69417;SDS011;56610;48.872;2.400;2023-08-30T13:59:09;4.45;;;1.90;;
69417;SDS011;56610;48.872;2.400;2023-08-30T14:01:35;6.78;;;2.10;;
69417;SDS011;56610;48.872;2.400;2023-08-30T14:04:02;6.77;;;1.90;;
69417;SDS011;56610;48.872;2.400;2023-08-30T14:06:30;5.47;;;2.10;;
69417;SDS011;56610;48.872;2.400;2023-08-30T14:08:55;5.55;;;1.92;;
69417;SDS011;56610;48.872;2.400;2023-08-30T14:11:21;2.38;;;1.60;;
69417;SDS011;56610;48.872;2.400;2023-08-30T14:13:47;2.08;;;1.40;;
69417;SDS011;56610;48.872;2.400;2023-08-30T14:16:13;3.50;;;1.15;;
69417;SDS011;56610;48.872;2.400;2023-08-30T14:18:38;5.40;;;1.75;;
69417;SDS011;56610;48.872;2.400;2023-08-30T14:21:05;4.63;;;1.60;;
69417;SDS011;56610;48.872;2.400;2023-08-30T14:23:30;3.33;;;1.63;;
69417;SDS011;56610;48.872;2.400;2023-08-30T14:25:57;4.45;;;1.70;;
69417;SDS011;56610;48.872;2.400;2023-08-30T14:28:24;3.33;;;1.60;;
69417;SDS011;56610;48.872;2.400;2023-08-30T14:30:53;3.40;;;1.60;;
69417;SDS011;56610;48.872;2.400;2023-08-30T14:33:19;4.07;;;1.55;;
69417;SDS011;56610;48.872;2.400;2023-08-30T14:35:45;3.75;;;1.73;;
69417;SDS011;56610;48.872;2.400;2023-08-30T14:38:11;4.10;;;1.50;;
69417;SDS011;56610;48.872;2.400;2023-08-30T14:40:36;4.53;;;2.03;;
69417;SDS011;56610;48.872;2.400;2023-08-30T14:43:05;6.18;;;2.00;;
69417;SDS011;56610;48.872;2.400;2023-08-30T14:45:31;4.20;;;1.75;;
69417;SDS011;56610;48.872;2.400;2023-08-30T14:47:57;4.32;;;1.88;;
69417;SDS011;56610;48.872;2.400;2023-08-30T14:50:23;9.82;;;2.17;;
69417;SDS011;56610;48.872;2.400;2023-08-30T14:52:49;3.33;;;1.80;;
69417;SDS011;56610;48.872;2.400;2023-08-30T14:55:16;7.80;;;1.90;;
69417;SDS011;56610;48.872;2.400;2023-08-30T14:57:42;3.63;;;1.50;;
69417;SDS011;56610;48.872;2.400;2023-08-30T15:00:07;4.05;;;1.70;;
69417;SDS011;56610;48.872;2.400;2023-08-30T15:02:33;3.92;;;1.77;;
69417;SDS011;56610;48.872;2.400;2023-08-30T15:04:59;3.55;;;1.60;;
69417;SDS011;56610;48.872;2.400;2023-08-30T15:07:24;2.88;;;1.55;;
69417;SDS011;56610;48.872;2.400;2023-08-30T15:09:50;6.18;;;1.80;;